NKS22 KDTW-KDFW
Flight info
| Callsign | NKS22 |
|---|---|
| Flight time | 2h 30m |
| Altitude | 32000 |
| Route | SNDRS3 BGHRT STL RZC FSM RRNET SEEVR4 |
| Aircraft | A320/M-SDE3FGHIRWY/LB1 |
Departure
| Time | 2026-05-05 18:39 |
|---|---|
| Airport | Detroit Metropolitan Wayne County Airport (KDTW) |
Arrival
| Time | 2026-05-05 21:09 |
|---|---|
| Airport | Dallas Fort Worth International Airport (KDFW) |
| Time | Latitude | Longitude | Altitude | Speed | Heading |
|---|---|---|---|---|---|
| 2026-05-05 18:03 | 42.22301 | -83.35199 | 650 ft | 0 kts | 162° |
| 2026-05-05 18:21 | 42.22318 | -83.35206 | 650 ft | 4 kts | 162° |
| 2026-05-05 18:21 | 42.22343 | -83.35217 | 652 ft | 4 kts | 166° |
| 2026-05-05 18:21 | 42.22370 | -83.35222 | 652 ft | 4 kts | 185° |
| 2026-05-05 18:21 | 42.22393 | -83.35212 | 652 ft | 4 kts | 228° |
| 2026-05-05 18:22 | 42.22396 | -83.35207 | 653 ft | 0 kts | 233° |
| 2026-05-05 18:25 | 42.22373 | -83.35249 | 649 ft | 10 kts | 233° |
| 2026-05-05 18:25 | 42.22296 | -83.35334 | 649 ft | 18 kts | 219° |
| 2026-05-05 18:26 | 42.22190 | -83.35416 | 651 ft | 18 kts | 212° |
| 2026-05-05 18:26 | 42.22080 | -83.35503 | 649 ft | 19 kts | 208° |
| 2026-05-05 18:26 | 42.21967 | -83.35587 | 649 ft | 17 kts | 209° |
| 2026-05-05 18:26 | 42.21867 | -83.35650 | 648 ft | 15 kts | 191° |
| 2026-05-05 18:27 | 42.21821 | -83.35552 | 648 ft | 15 kts | 91° |
| 2026-05-05 18:27 | 42.21822 | -83.35411 | 649 ft | 16 kts | 89° |
| 2026-05-05 18:27 | 42.21824 | -83.35261 | 651 ft | 16 kts | 83° |
| 2026-05-05 18:27 | 42.21829 | -83.35106 | 649 ft | 17 kts | 90° |
| 2026-05-05 18:28 | 42.21834 | -83.34783 | 650 ft | 18 kts | 91° |
| 2026-05-05 18:28 | 42.21837 | -83.34611 | 650 ft | 19 kts | 89° |
| 2026-05-05 18:28 | 42.21889 | -83.34475 | 650 ft | 18 kts | 30° |
| 2026-05-05 18:29 | 42.22003 | -83.34394 | 650 ft | 19 kts | 31° |
| 2026-05-05 18:29 | 42.22123 | -83.34304 | 650 ft | 20 kts | 29° |
| 2026-05-05 18:29 | 42.22251 | -83.34211 | 651 ft | 21 kts | 28° |
| 2026-05-05 18:29 | 42.22385 | -83.34111 | 650 ft | 22 kts | 28° |
| 2026-05-05 18:30 | 42.22522 | -83.34010 | 650 ft | 23 kts | 30° |
| 2026-05-05 18:30 | 42.22648 | -83.33919 | 650 ft | 19 kts | 27° |
| 2026-05-05 18:30 | 42.22724 | -83.33862 | 651 ft | 10 kts | 28° |
| 2026-05-05 18:30 | 42.22783 | -83.33818 | 650 ft | 10 kts | 29° |
| 2026-05-05 18:31 | 42.22814 | -83.33795 | 649 ft | 0 kts | 29° |
| 2026-05-05 18:31 | 42.22827 | -83.33784 | 651 ft | 3 kts | 33° |
| 2026-05-05 18:31 | 42.22830 | -83.33781 | 650 ft | 0 kts | 35° |
| 2026-05-05 18:33 | 42.22831 | -83.33780 | 650 ft | 1 kts | 35° |
| 2026-05-05 18:33 | 42.22849 | -83.33753 | 651 ft | 5 kts | 62° |
| 2026-05-05 18:34 | 42.22853 | -83.33730 | 649 ft | 0 kts | 85° |
| 2026-05-05 18:35 | 42.22853 | -83.33725 | 649 ft | 2 kts | 84° |
| 2026-05-05 18:35 | 42.22851 | -83.33695 | 649 ft | 4 kts | 105° |
| 2026-05-05 18:36 | 42.22826 | -83.33664 | 650 ft | 5 kts | 150° |
| 2026-05-05 18:36 | 42.22786 | -83.33654 | 650 ft | 7 kts | 186° |
| 2026-05-05 18:36 | 42.22766 | -83.33665 | 650 ft | 0 kts | 207° |
| 2026-05-05 18:38 | 42.22678 | -83.33730 | 653 ft | 45 kts | 209° |
| 2026-05-05 18:38 | 42.22209 | -83.34072 | 651 ft | 105 kts | 208° |
| 2026-05-05 18:39 | 42.21430 | -83.34650 | 650 ft | 148 kts | 209° |
| 2026-05-05 18:39 | 42.20449 | -83.35382 | 904 ft | 162 kts | 214° |
| 2026-05-05 18:39 | 42.19425 | -83.36005 | 1527 ft | 164 kts | 200° |
| 2026-05-05 18:39 | 42.18287 | -83.36258 | 2045 ft | 167 kts | 193° |
| 2026-05-05 18:40 | 42.17141 | -83.36551 | 2475 ft | 167 kts | 199° |
| 2026-05-05 18:40 | 42.16043 | -83.37016 | 2934 ft | 170 kts | 205° |
| 2026-05-05 18:40 | 42.14835 | -83.37606 | 3156 ft | 202 kts | 205° |
| 2026-05-05 18:40 | 42.13483 | -83.38284 | 4040 ft | 198 kts | 206° |
| 2026-05-05 18:41 | 42.12180 | -83.38901 | 5010 ft | 210 kts | 205° |
| 2026-05-05 18:41 | 42.10722 | -83.39522 | 5572 ft | 235 kts | 203° |
| 2026-05-05 18:41 | 42.09122 | -83.40156 | 6438 ft | 242 kts | 202° |
| 2026-05-05 18:41 | 42.07520 | -83.40861 | 7211 ft | 241 kts | 212° |
| 2026-05-05 18:42 | 42.06127 | -83.42070 | 7930 ft | 238 kts | 220° |
| 2026-05-05 18:42 | 42.04784 | -83.43389 | 8676 ft | 240 kts | 220° |
| 2026-05-05 18:42 | 42.03428 | -83.44722 | 9407 ft | 242 kts | 220° |
| 2026-05-05 18:42 | 42.02062 | -83.46067 | 10044 ft | 248 kts | 220° |
| 2026-05-05 18:43 | 42.00603 | -83.47505 | 10195 ft | 270 kts | 220° |
| 2026-05-05 18:43 | 41.99025 | -83.49059 | 10322 ft | 292 kts | 220° |
| 2026-05-05 18:43 | 41.97340 | -83.50747 | 10511 ft | 310 kts | 221° |
| 2026-05-05 18:43 | 41.95607 | -83.52529 | 10993 ft | 317 kts | 221° |
| 2026-05-05 18:44 | 41.93851 | -83.54353 | 11548 ft | 321 kts | 221° |
| 2026-05-05 18:44 | 41.92098 | -83.56174 | 12104 ft | 324 kts | 221° |
| 2026-05-05 18:44 | 41.90305 | -83.58032 | 12669 ft | 327 kts | 221° |
| 2026-05-05 18:44 | 41.88491 | -83.59905 | 13223 ft | 331 kts | 221° |
| 2026-05-05 18:45 | 41.86656 | -83.61795 | 13774 ft | 334 kts | 221° |
| 2026-05-05 18:45 | 41.84801 | -83.63704 | 14267 ft | 337 kts | 221° |
| 2026-05-05 18:45 | 41.82931 | -83.65623 | 14772 ft | 340 kts | 221° |
| 2026-05-05 18:45 | 41.81041 | -83.67560 | 15249 ft | 343 kts | 221° |
| 2026-05-05 18:46 | 41.79136 | -83.69509 | 15731 ft | 346 kts | 221° |
| 2026-05-05 18:46 | 41.77214 | -83.71479 | 16235 ft | 349 kts | 221° |
| 2026-05-05 18:46 | 41.75278 | -83.73464 | 16756 ft | 352 kts | 221° |
| 2026-05-05 18:46 | 41.73326 | -83.75464 | 17289 ft | 354 kts | 221° |
| 2026-05-05 18:47 | 41.71363 | -83.77478 | 17834 ft | 357 kts | 221° |
| 2026-05-05 18:47 | 41.70044 | -83.78812 | 18187 ft | 360 kts | 219° |
| 2026-05-05 18:47 | 41.67195 | -83.81171 | 18796 ft | 365 kts | 215° |
| 2026-05-05 18:47 | 41.65012 | -83.82929 | 19268 ft | 368 kts | 216° |
| 2026-05-05 18:48 | 41.62810 | -83.84698 | 19727 ft | 370 kts | 216° |
| 2026-05-05 18:48 | 41.61313 | -83.85898 | 20034 ft | 372 kts | 216° |
| 2026-05-05 18:48 | 41.59083 | -83.87679 | 20441 ft | 375 kts | 216° |
| 2026-05-05 18:48 | 41.56832 | -83.89475 | 20862 ft | 378 kts | 216° |
| 2026-05-05 18:49 | 41.54596 | -83.91260 | 21282 ft | 380 kts | 216° |
| 2026-05-05 18:49 | 41.52321 | -83.93080 | 21672 ft | 383 kts | 216° |
| 2026-05-05 18:49 | 41.50030 | -83.94912 | 22051 ft | 385 kts | 216° |
| 2026-05-05 18:49 | 41.47723 | -83.96760 | 22419 ft | 388 kts | 217° |
| 2026-05-05 18:50 | 41.45402 | -83.98620 | 22775 ft | 390 kts | 217° |
| 2026-05-05 18:50 | 41.43068 | -84.00486 | 23128 ft | 392 kts | 217° |
| 2026-05-05 18:50 | 41.40719 | -84.02361 | 23437 ft | 394 kts | 217° |
| 2026-05-05 18:50 | 41.38353 | -84.04250 | 23681 ft | 398 kts | 217° |
| 2026-05-05 18:51 | 41.35970 | -84.06151 | 23969 ft | 400 kts | 217° |
| 2026-05-05 18:51 | 41.33579 | -84.08048 | 24268 ft | 401 kts | 217° |
| 2026-05-05 18:51 | 41.31177 | -84.09949 | 24585 ft | 402 kts | 216° |
| 2026-05-05 18:51 | 41.28783 | -84.11879 | 24943 ft | 402 kts | 219° |
| 2026-05-05 18:52 | 41.26623 | -84.14206 | 25319 ft | 397 kts | 229° |
| 2026-05-05 18:52 | 41.24845 | -84.16972 | 25773 ft | 391 kts | 238° |
| 2026-05-05 18:52 | 41.23482 | -84.20063 | 26249 ft | 385 kts | 246° |
| 2026-05-05 18:52 | 41.22473 | -84.23341 | 26687 ft | 383 kts | 249° |
| 2026-05-05 18:53 | 41.21502 | -84.26624 | 27130 ft | 380 kts | 249° |
| 2026-05-05 18:53 | 41.20526 | -84.29883 | 27569 ft | 378 kts | 249° |
| 2026-05-05 18:53 | 41.19552 | -84.33114 | 28036 ft | 376 kts | 249° |
| 2026-05-05 18:53 | 41.18582 | -84.36325 | 28496 ft | 374 kts | 249° |
| 2026-05-05 18:54 | 41.17617 | -84.39522 | 29010 ft | 372 kts | 249° |
| 2026-05-05 18:54 | 41.16673 | -84.42657 | 29543 ft | 369 kts | 249° |
| 2026-05-05 18:54 | 41.15723 | -84.45815 | 30078 ft | 367 kts | 249° |
| 2026-05-05 18:54 | 41.14778 | -84.48951 | 30555 ft | 365 kts | 249° |
| 2026-05-05 18:55 | 41.13838 | -84.52070 | 30979 ft | 363 kts | 249° |
| 2026-05-05 18:55 | 41.12899 | -84.55176 | 31387 ft | 362 kts | 249° |
| 2026-05-05 18:55 | 41.11964 | -84.58265 | 31749 ft | 361 kts | 249° |
| 2026-05-05 18:55 | 41.11028 | -84.61360 | 31862 ft | 363 kts | 249° |
| 2026-05-05 18:56 | 41.09582 | -84.67885 | 31886 ft | 377 kts | 258° |
| 2026-05-05 18:56 | 41.08433 | -84.74746 | 31876 ft | 383 kts | 258° |
| 2026-05-05 18:57 | 41.07262 | -84.81639 | 31876 ft | 383 kts | 258° |
| 2026-05-05 18:57 | 41.06090 | -84.88526 | 31893 ft | 383 kts | 258° |
| 2026-05-05 18:58 | 41.04917 | -84.95422 | 31899 ft | 383 kts | 258° |
| 2026-05-05 18:58 | 41.03743 | -85.02307 | 31890 ft | 383 kts | 258° |
| 2026-05-05 18:59 | 41.02560 | -85.09194 | 31873 ft | 383 kts | 259° |
| 2026-05-05 18:59 | 41.01374 | -85.16087 | 31875 ft | 384 kts | 259° |
| 2026-05-05 19:00 | 41.00183 | -85.22985 | 31877 ft | 385 kts | 259° |
| 2026-05-05 19:00 | 40.98988 | -85.29854 | 31881 ft | 385 kts | 258° |
| 2026-05-05 19:01 | 40.97784 | -85.36762 | 31884 ft | 385 kts | 259° |
| 2026-05-05 19:01 | 40.96578 | -85.43674 | 31911 ft | 386 kts | 259° |
| 2026-05-05 19:02 | 40.95362 | -85.50568 | 31919 ft | 384 kts | 259° |
| 2026-05-05 19:02 | 40.94150 | -85.57442 | 31917 ft | 383 kts | 259° |
| 2026-05-05 19:03 | 40.92949 | -85.64286 | 31914 ft | 382 kts | 259° |
| 2026-05-05 19:03 | 40.91744 | -85.71118 | 31905 ft | 381 kts | 259° |
| 2026-05-05 19:04 | 40.90530 | -85.77937 | 31899 ft | 381 kts | 259° |
| 2026-05-05 19:04 | 40.89310 | -85.84749 | 31894 ft | 381 kts | 259° |
| 2026-05-05 19:05 | 40.88240 | -85.91592 | 31899 ft | 379 kts | 264° |
| 2026-05-05 19:05 | 40.87515 | -85.98496 | 31901 ft | 379 kts | 264° |
| 2026-05-05 19:06 | 40.86779 | -86.05402 | 31901 ft | 379 kts | 263° |
| 2026-05-05 19:06 | 40.86032 | -86.12256 | 31899 ft | 379 kts | 263° |
| 2026-05-05 19:07 | 40.85281 | -86.19149 | 31919 ft | 379 kts | 264° |
| 2026-05-05 19:07 | 40.84538 | -86.26031 | 31876 ft | 378 kts | 264° |
| 2026-05-05 19:08 | 40.83793 | -86.32891 | 31891 ft | 377 kts | 264° |
| 2026-05-05 19:08 | 40.83035 | -86.39745 | 31898 ft | 376 kts | 264° |
| 2026-05-05 19:09 | 40.82274 | -86.46578 | 31901 ft | 376 kts | 264° |
| 2026-05-05 19:09 | 40.81516 | -86.53368 | 31910 ft | 376 kts | 264° |
| 2026-05-05 19:10 | 40.80749 | -86.60188 | 31923 ft | 375 kts | 264° |
| 2026-05-05 19:10 | 40.79984 | -86.66983 | 31921 ft | 373 kts | 264° |
| 2026-05-05 19:11 | 40.79220 | -86.73755 | 31916 ft | 372 kts | 264° |
| 2026-05-05 19:11 | 40.78452 | -86.80508 | 31919 ft | 372 kts | 264° |
| 2026-05-05 19:12 | 40.77678 | -86.87250 | 31948 ft | 372 kts | 264° |
| 2026-05-05 19:12 | 40.76899 | -86.94000 | 31935 ft | 372 kts | 264° |
| 2026-05-05 19:13 | 40.76131 | -87.00701 | 31936 ft | 371 kts | 264° |
| 2026-05-05 19:13 | 40.75355 | -87.07417 | 31927 ft | 370 kts | 264° |
| 2026-05-05 19:14 | 40.74569 | -87.14124 | 31920 ft | 370 kts | 264° |
| 2026-05-05 19:14 | 40.73778 | -87.20828 | 31912 ft | 369 kts | 264° |
| 2026-05-05 19:15 | 40.72985 | -87.27520 | 31906 ft | 369 kts | 264° |
| 2026-05-05 19:15 | 40.72194 | -87.34206 | 31910 ft | 369 kts | 263° |
| 2026-05-05 19:16 | 40.71402 | -87.40886 | 31920 ft | 368 kts | 263° |
| 2026-05-05 19:16 | 40.70603 | -87.47514 | 31920 ft | 368 kts | 263° |
| 2026-05-05 19:17 | 40.69794 | -87.54185 | 31921 ft | 369 kts | 263° |
| 2026-05-05 19:17 | 40.68987 | -87.60850 | 31916 ft | 368 kts | 263° |
| 2026-05-05 19:18 | 40.68180 | -87.67497 | 31916 ft | 367 kts | 263° |
| 2026-05-05 19:18 | 40.67372 | -87.74139 | 31922 ft | 367 kts | 263° |
| 2026-05-05 19:19 | 40.66555 | -87.80773 | 31924 ft | 366 kts | 263° |
| 2026-05-05 19:19 | 40.65760 | -87.87192 | 31923 ft | 365 kts | 263° |
| 2026-05-05 19:20 | 40.64952 | -87.91741 | 31920 ft | 369 kts | 253° |
| 2026-05-05 19:20 | 40.63300 | -87.95774 | 31922 ft | 380 kts | 240° |
| 2026-05-05 19:21 | 40.59800 | -88.01077 | 31914 ft | 385 kts | 237° |
| 2026-05-05 19:21 | 40.56236 | -88.06334 | 31909 ft | 385 kts | 237° |
| 2026-05-05 19:22 | 40.52674 | -88.11586 | 31918 ft | 385 kts | 237° |
| 2026-05-05 19:22 | 40.49116 | -88.16834 | 31946 ft | 384 kts | 237° |
| 2026-05-05 19:23 | 40.45581 | -88.22044 | 31912 ft | 384 kts | 237° |
| 2026-05-05 19:23 | 40.42019 | -88.27286 | 31915 ft | 385 kts | 237° |
| 2026-05-05 19:24 | 40.38444 | -88.32537 | 31918 ft | 386 kts | 237° |
| 2026-05-05 19:24 | 40.36503 | -88.35381 | 31919 ft | 386 kts | 237° |
| 2026-05-05 19:25 | 40.32915 | -88.40627 | 31919 ft | 387 kts | 237° |
| 2026-05-05 19:25 | 40.29321 | -88.45876 | 31920 ft | 387 kts | 237° |
| 2026-05-05 19:26 | 40.25730 | -88.51120 | 31929 ft | 386 kts | 237° |
| 2026-05-05 19:26 | 40.22139 | -88.56352 | 31898 ft | 386 kts | 238° |
| 2026-05-05 19:27 | 40.18547 | -88.61575 | 31896 ft | 386 kts | 238° |
| 2026-05-05 19:27 | 40.14973 | -88.66762 | 31906 ft | 386 kts | 238° |
| 2026-05-05 19:28 | 40.11372 | -88.71980 | 31911 ft | 387 kts | 238° |
| 2026-05-05 19:28 | 40.07771 | -88.77189 | 31927 ft | 387 kts | 238° |
| 2026-05-05 19:29 | 40.04161 | -88.82399 | 31935 ft | 386 kts | 238° |
| 2026-05-05 19:29 | 40.00555 | -88.87602 | 31904 ft | 387 kts | 238° |
| 2026-05-05 19:30 | 39.96937 | -88.92819 | 31912 ft | 387 kts | 238° |
| 2026-05-05 19:30 | 39.93309 | -88.98036 | 31929 ft | 388 kts | 238° |
| 2026-05-05 19:31 | 39.89698 | -89.03209 | 31937 ft | 388 kts | 238° |
| 2026-05-05 19:31 | 39.86056 | -89.08412 | 31918 ft | 388 kts | 238° |
| 2026-05-05 19:32 | 39.82421 | -89.13614 | 31923 ft | 388 kts | 238° |
| 2026-05-05 19:32 | 39.78780 | -89.18814 | 31896 ft | 388 kts | 238° |
| 2026-05-05 19:33 | 39.75135 | -89.24006 | 31921 ft | 389 kts | 238° |
| 2026-05-05 19:33 | 39.71487 | -89.29191 | 31936 ft | 389 kts | 238° |
| 2026-05-05 19:34 | 39.67837 | -89.34375 | 31946 ft | 388 kts | 238° |
| 2026-05-05 19:35 | 39.62383 | -89.42095 | 31954 ft | 388 kts | 237° |
| 2026-05-05 19:35 | 39.58730 | -89.47261 | 31954 ft | 388 kts | 238° |
| 2026-05-05 19:36 | 39.55703 | -89.51551 | 31924 ft | 388 kts | 237° |
| 2026-05-05 19:36 | 39.52043 | -89.56708 | 31926 ft | 389 kts | 237° |
| 2026-05-05 19:37 | 39.48378 | -89.61853 | 31933 ft | 388 kts | 237° |
| 2026-05-05 19:37 | 39.44715 | -89.66995 | 31932 ft | 388 kts | 237° |
| 2026-05-05 19:38 | 39.41052 | -89.72136 | 31931 ft | 389 kts | 237° |
| 2026-05-05 19:38 | 39.37382 | -89.77276 | 31932 ft | 389 kts | 237° |
| 2026-05-05 19:39 | 39.33713 | -89.82399 | 31915 ft | 389 kts | 237° |
| 2026-05-05 19:39 | 39.30040 | -89.87537 | 31925 ft | 389 kts | 237° |
| 2026-05-05 19:40 | 39.26359 | -89.92665 | 31932 ft | 389 kts | 236° |
| 2026-05-05 19:40 | 39.22703 | -89.97754 | 31939 ft | 389 kts | 236° |
| 2026-05-05 19:41 | 39.19021 | -90.02867 | 31946 ft | 389 kts | 236° |
| 2026-05-05 19:41 | 39.15337 | -90.07964 | 31950 ft | 388 kts | 236° |
| 2026-05-05 19:42 | 39.11656 | -90.13054 | 31897 ft | 388 kts | 236° |
| 2026-05-05 19:42 | 39.07967 | -90.18142 | 31915 ft | 388 kts | 236° |
| 2026-05-05 19:43 | 39.04279 | -90.23232 | 31923 ft | 389 kts | 236° |
| 2026-05-05 19:43 | 39.00592 | -90.28325 | 31927 ft | 389 kts | 236° |
| 2026-05-05 19:44 | 38.96898 | -90.33413 | 31931 ft | 389 kts | 236° |
| 2026-05-05 19:44 | 38.93217 | -90.38456 | 31943 ft | 389 kts | 236° |
| 2026-05-05 19:45 | 38.89513 | -90.43518 | 31944 ft | 389 kts | 236° |
| 2026-05-05 19:45 | 38.85811 | -90.48581 | 31908 ft | 389 kts | 236° |
| 2026-05-05 19:46 | 38.82220 | -90.53745 | 31924 ft | 387 kts | 237° |
| 2026-05-05 19:46 | 38.78726 | -90.58983 | 31922 ft | 386 kts | 238° |
| 2026-05-05 19:47 | 38.75219 | -90.64200 | 31925 ft | 387 kts | 237° |
| 2026-05-05 19:47 | 38.71677 | -90.69398 | 31927 ft | 387 kts | 237° |
| 2026-05-05 19:48 | 38.68149 | -90.74551 | 31929 ft | 387 kts | 237° |
| 2026-05-05 19:48 | 38.64600 | -90.79737 | 31902 ft | 387 kts | 237° |
| 2026-05-05 19:49 | 38.61041 | -90.84927 | 31912 ft | 387 kts | 237° |
| 2026-05-05 19:49 | 38.57487 | -90.90108 | 31918 ft | 387 kts | 237° |
| 2026-05-05 19:50 | 38.53929 | -90.95274 | 31937 ft | 387 kts | 237° |
| 2026-05-05 19:50 | 38.50360 | -91.00448 | 31943 ft | 388 kts | 237° |
| 2026-05-05 19:51 | 38.46789 | -91.05615 | 31946 ft | 388 kts | 237° |
| 2026-05-05 19:51 | 38.43217 | -91.10788 | 31945 ft | 388 kts | 237° |
| 2026-05-05 19:52 | 38.39644 | -91.15952 | 31952 ft | 388 kts | 237° |
| 2026-05-05 19:52 | 38.36086 | -91.21076 | 31962 ft | 388 kts | 237° |
| 2026-05-05 19:53 | 38.32510 | -91.26221 | 31970 ft | 388 kts | 237° |
| 2026-05-05 19:53 | 38.28935 | -91.31360 | 31969 ft | 387 kts | 237° |
| 2026-05-05 19:54 | 38.25364 | -91.36493 | 31960 ft | 387 kts | 237° |
| 2026-05-05 19:54 | 38.21786 | -91.41615 | 31951 ft | 387 kts | 236° |
| 2026-05-05 19:55 | 38.18204 | -91.46725 | 31941 ft | 387 kts | 236° |
| 2026-05-05 19:55 | 38.14650 | -91.51808 | 31907 ft | 387 kts | 236° |
| 2026-05-05 19:56 | 38.11068 | -91.56931 | 31910 ft | 388 kts | 236° |
| 2026-05-05 19:56 | 38.07472 | -91.62041 | 31922 ft | 388 kts | 236° |
| 2026-05-05 19:57 | 38.03871 | -91.67160 | 31931 ft | 388 kts | 236° |
| 2026-05-05 19:57 | 38.00270 | -91.72279 | 31944 ft | 389 kts | 236° |
| 2026-05-05 19:58 | 37.96659 | -91.77386 | 31912 ft | 389 kts | 236° |
| 2026-05-05 19:58 | 37.93065 | -91.82461 | 31881 ft | 389 kts | 236° |
| 2026-05-05 19:59 | 37.89451 | -91.87570 | 31890 ft | 389 kts | 236° |
| 2026-05-05 19:59 | 37.85835 | -91.92682 | 31884 ft | 390 kts | 236° |
| 2026-05-05 20:00 | 37.82208 | -91.97773 | 31897 ft | 389 kts | 236° |
| 2026-05-05 20:00 | 37.78586 | -92.02860 | 31902 ft | 389 kts | 236° |
| 2026-05-05 20:01 | 37.74972 | -92.07935 | 31906 ft | 388 kts | 236° |
| 2026-05-05 20:01 | 37.71348 | -92.13010 | 31906 ft | 388 kts | 236° |
| 2026-05-05 20:02 | 37.67730 | -92.18071 | 31880 ft | 388 kts | 236° |
| 2026-05-05 20:02 | 37.64138 | -92.23099 | 31882 ft | 388 kts | 236° |
| 2026-05-05 20:03 | 37.60510 | -92.28155 | 31882 ft | 389 kts | 236° |
| 2026-05-05 20:03 | 37.56882 | -92.33203 | 31890 ft | 388 kts | 236° |
| 2026-05-05 20:04 | 37.53250 | -92.38252 | 31903 ft | 388 kts | 236° |
| 2026-05-05 20:04 | 37.49614 | -92.43291 | 31900 ft | 388 kts | 236° |
| 2026-05-05 20:05 | 37.45978 | -92.48326 | 31905 ft | 388 kts | 236° |
| 2026-05-05 20:05 | 37.42347 | -92.53351 | 31879 ft | 387 kts | 236° |
| 2026-05-05 20:06 | 37.38740 | -92.58337 | 31878 ft | 387 kts | 236° |
| 2026-05-05 20:06 | 37.35108 | -92.63333 | 31876 ft | 387 kts | 236° |
| 2026-05-05 20:07 | 37.31484 | -92.68326 | 31867 ft | 386 kts | 236° |
| 2026-05-05 20:07 | 37.27859 | -92.73319 | 31862 ft | 386 kts | 235° |
| 2026-05-05 20:08 | 37.24231 | -92.78296 | 31857 ft | 386 kts | 235° |
| 2026-05-05 20:08 | 37.20627 | -92.83229 | 31863 ft | 386 kts | 235° |
| 2026-05-05 20:09 | 37.17013 | -92.88188 | 31833 ft | 385 kts | 236° |
| 2026-05-05 20:09 | 37.13398 | -92.93131 | 31843 ft | 384 kts | 236° |
| 2026-05-05 20:10 | 37.09782 | -92.98066 | 31834 ft | 384 kts | 236° |
| 2026-05-05 20:10 | 37.06161 | -93.02993 | 31838 ft | 384 kts | 236° |
| 2026-05-05 20:11 | 37.02547 | -93.07905 | 31831 ft | 383 kts | 236° |
| 2026-05-05 20:11 | 36.98963 | -93.12783 | 31826 ft | 383 kts | 236° |
| 2026-05-05 20:12 | 36.95350 | -93.17693 | 31824 ft | 383 kts | 236° |
| 2026-05-05 20:12 | 36.91731 | -93.22587 | 31811 ft | 383 kts | 236° |
| 2026-05-05 20:13 | 36.88115 | -93.27464 | 31819 ft | 383 kts | 236° |
| 2026-05-05 20:13 | 36.84503 | -93.32350 | 31830 ft | 382 kts | 236° |
| 2026-05-05 20:14 | 36.80890 | -93.37228 | 31837 ft | 382 kts | 236° |
| 2026-05-05 20:14 | 36.77272 | -93.42086 | 31841 ft | 382 kts | 236° |
| 2026-05-05 20:15 | 36.73648 | -93.46946 | 31842 ft | 382 kts | 236° |
| 2026-05-05 20:15 | 36.70037 | -93.51801 | 31841 ft | 382 kts | 236° |
| 2026-05-05 20:16 | 36.66412 | -93.56670 | 31810 ft | 384 kts | 235° |
| 2026-05-05 20:16 | 36.62794 | -93.61505 | 31810 ft | 384 kts | 235° |
| 2026-05-05 20:17 | 36.59150 | -93.66375 | 31806 ft | 384 kts | 235° |
| 2026-05-05 20:17 | 36.55499 | -93.71239 | 31792 ft | 384 kts | 235° |
| 2026-05-05 20:18 | 36.51853 | -93.76101 | 31804 ft | 385 kts | 235° |
| 2026-05-05 20:18 | 36.48196 | -93.80955 | 31825 ft | 384 kts | 235° |
| 2026-05-05 20:19 | 36.44550 | -93.85800 | 31845 ft | 383 kts | 235° |
| 2026-05-05 20:19 | 36.40916 | -93.90634 | 31826 ft | 382 kts | 236° |
| 2026-05-05 20:20 | 36.37273 | -93.95463 | 31837 ft | 382 kts | 235° |
| 2026-05-05 20:20 | 36.33635 | -94.00269 | 31837 ft | 382 kts | 235° |
| 2026-05-05 20:21 | 36.30017 | -94.05050 | 31846 ft | 382 kts | 235° |
| 2026-05-05 20:21 | 36.26264 | -94.09752 | 31823 ft | 392 kts | 227° |
| 2026-05-05 20:21 | 36.23910 | -94.11566 | 31828 ft | 408 kts | 216° |
| 2026-05-05 20:22 | 36.21163 | -94.12738 | 31828 ft | 428 kts | 204° |
| 2026-05-05 20:22 | 36.15174 | -94.13844 | 31810 ft | 437 kts | 201° |
| 2026-05-05 20:23 | 36.09143 | -94.14885 | 31791 ft | 437 kts | 201° |
| 2026-05-05 20:23 | 36.03118 | -94.15936 | 31795 ft | 438 kts | 201° |
| 2026-05-05 20:24 | 35.97088 | -94.16995 | 31805 ft | 438 kts | 201° |
| 2026-05-05 20:24 | 35.91048 | -94.18057 | 31813 ft | 438 kts | 201° |
| 2026-05-05 20:25 | 35.86024 | -94.18938 | 31800 ft | 438 kts | 201° |
| 2026-05-05 20:25 | 35.79000 | -94.20171 | 31767 ft | 438 kts | 201° |
| 2026-05-05 20:26 | 35.72977 | -94.21220 | 31774 ft | 437 kts | 201° |
| 2026-05-05 20:26 | 35.67945 | -94.22097 | 31734 ft | 436 kts | 201° |
| 2026-05-05 20:27 | 35.61954 | -94.23142 | 31744 ft | 437 kts | 201° |
| 2026-05-05 20:27 | 35.55931 | -94.24189 | 31747 ft | 437 kts | 201° |
| 2026-05-05 20:28 | 35.49909 | -94.25232 | 31755 ft | 437 kts | 201° |
| 2026-05-05 20:28 | 35.43886 | -94.26274 | 31759 ft | 436 kts | 202° |
| 2026-05-05 20:28 | 35.40987 | -94.27114 | 31725 ft | 419 kts | 211° |
| 2026-05-05 20:29 | 35.38355 | -94.28486 | 31732 ft | 404 kts | 220° |
| 2026-05-05 20:29 | 35.36020 | -94.30303 | 31735 ft | 392 kts | 228° |
| 2026-05-05 20:29 | 35.33975 | -94.32448 | 31738 ft | 386 kts | 232° |
| 2026-05-05 20:30 | 35.29953 | -94.36830 | 31740 ft | 387 kts | 231° |
| 2026-05-05 20:30 | 35.25920 | -94.41197 | 31743 ft | 387 kts | 231° |
| 2026-05-05 20:31 | 35.21907 | -94.45541 | 31747 ft | 388 kts | 231° |
| 2026-05-05 20:31 | 35.17866 | -94.49905 | 31746 ft | 387 kts | 231° |
| 2026-05-05 20:32 | 35.13828 | -94.54273 | 31717 ft | 388 kts | 231° |
| 2026-05-05 20:32 | 35.09785 | -94.58640 | 31726 ft | 388 kts | 231° |
| 2026-05-05 20:33 | 35.05725 | -94.63006 | 31739 ft | 388 kts | 231° |
| 2026-05-05 20:33 | 35.01680 | -94.67358 | 31744 ft | 388 kts | 231° |
| 2026-05-05 20:34 | 34.97624 | -94.71712 | 31739 ft | 388 kts | 231° |
| 2026-05-05 20:34 | 34.93567 | -94.76055 | 31744 ft | 388 kts | 231° |
| 2026-05-05 20:35 | 34.89516 | -94.80391 | 31712 ft | 388 kts | 231° |
| 2026-05-05 20:35 | 34.85486 | -94.84696 | 31719 ft | 388 kts | 231° |
| 2026-05-05 20:36 | 34.81424 | -94.89031 | 31721 ft | 389 kts | 231° |
| 2026-05-05 20:36 | 34.77289 | -94.93300 | 31726 ft | 390 kts | 230° |
| 2026-05-05 20:37 | 34.73111 | -94.97525 | 31738 ft | 390 kts | 230° |
| 2026-05-05 20:37 | 34.68951 | -95.01751 | 31742 ft | 389 kts | 230° |
| 2026-05-05 20:38 | 34.64802 | -95.05979 | 31743 ft | 389 kts | 230° |
| 2026-05-05 20:38 | 34.60653 | -95.10203 | 31719 ft | 389 kts | 230° |
| 2026-05-05 20:39 | 34.56527 | -95.14397 | 31727 ft | 389 kts | 230° |
| 2026-05-05 20:39 | 34.52376 | -95.18614 | 31728 ft | 389 kts | 230° |
| 2026-05-05 20:40 | 34.48225 | -95.22826 | 31734 ft | 389 kts | 230° |
| 2026-05-05 20:40 | 34.44068 | -95.27036 | 31736 ft | 389 kts | 230° |
| 2026-05-05 20:41 | 34.39898 | -95.31231 | 31740 ft | 389 kts | 230° |
| 2026-05-05 20:41 | 34.35725 | -95.35426 | 31707 ft | 389 kts | 229° |
| 2026-05-05 20:42 | 34.31557 | -95.39608 | 31729 ft | 389 kts | 229° |
| 2026-05-05 20:42 | 34.27396 | -95.43783 | 31743 ft | 389 kts | 229° |
| 2026-05-05 20:43 | 34.23228 | -95.47958 | 31753 ft | 389 kts | 229° |
| 2026-05-05 20:43 | 34.19103 | -95.52101 | 31755 ft | 388 kts | 229° |
| 2026-05-05 20:44 | 34.14940 | -95.56258 | 31762 ft | 389 kts | 229° |
| 2026-05-05 20:44 | 34.10759 | -95.60415 | 31766 ft | 389 kts | 229° |
| 2026-05-05 20:45 | 34.04496 | -95.66648 | 31717 ft | 389 kts | 229° |
| 2026-05-05 20:45 | 34.00316 | -95.70800 | 31725 ft | 386 kts | 229° |
| 2026-05-05 20:46 | 33.96235 | -95.74825 | 31113 ft | 378 kts | 229° |
| 2026-05-05 20:46 | 33.94217 | -95.76837 | 29741 ft | 383 kts | 229° |
| 2026-05-05 20:46 | 33.92180 | -95.78883 | 28515 ft | 379 kts | 229° |
| 2026-05-05 20:47 | 33.90164 | -95.80902 | 27427 ft | 374 kts | 229° |
| 2026-05-05 20:47 | 33.88178 | -95.82884 | 26628 ft | 368 kts | 229° |
| 2026-05-05 20:47 | 33.86208 | -95.84853 | 26200 ft | 365 kts | 229° |
| 2026-05-05 20:47 | 33.84256 | -95.86806 | 25959 ft | 365 kts | 229° |
| 2026-05-05 20:48 | 33.82302 | -95.88760 | 25723 ft | 365 kts | 229° |
| 2026-05-05 20:48 | 33.80348 | -95.90705 | 25299 ft | 363 kts | 229° |
| 2026-05-05 20:48 | 33.78405 | -95.92627 | 24752 ft | 361 kts | 229° |
| 2026-05-05 20:48 | 33.76470 | -95.94535 | 24183 ft | 359 kts | 229° |
| 2026-05-05 20:49 | 33.74541 | -95.96431 | 23606 ft | 358 kts | 229° |
| 2026-05-05 20:49 | 33.72614 | -95.98323 | 23004 ft | 357 kts | 229° |
| 2026-05-05 20:49 | 33.70697 | -96.00209 | 22416 ft | 355 kts | 228° |
| 2026-05-05 20:49 | 33.68795 | -96.02082 | 21859 ft | 352 kts | 227° |
| 2026-05-05 20:50 | 33.66907 | -96.03943 | 21305 ft | 351 kts | 227° |
| 2026-05-05 20:50 | 33.65030 | -96.05789 | 20806 ft | 348 kts | 227° |
| 2026-05-05 20:50 | 33.63187 | -96.07601 | 20384 ft | 345 kts | 226° |
| 2026-05-05 20:50 | 33.61340 | -96.09414 | 19938 ft | 342 kts | 226° |
| 2026-05-05 20:51 | 33.59498 | -96.11219 | 19460 ft | 340 kts | 225° |
| 2026-05-05 20:51 | 33.57670 | -96.13009 | 19009 ft | 338 kts | 225° |
| 2026-05-05 20:51 | 33.55855 | -96.14789 | 18542 ft | 336 kts | 224° |
| 2026-05-05 20:51 | 33.54053 | -96.16559 | 18078 ft | 334 kts | 224° |
| 2026-05-05 20:52 | 33.52261 | -96.18318 | 17517 ft | 332 kts | 224° |
| 2026-05-05 20:52 | 33.50475 | -96.20067 | 16949 ft | 330 kts | 224° |
| 2026-05-05 20:52 | 33.48696 | -96.21805 | 16387 ft | 329 kts | 224° |
| 2026-05-05 20:52 | 33.46945 | -96.23512 | 16173 ft | 318 kts | 224° |
| 2026-05-05 20:53 | 33.45261 | -96.25149 | 15965 ft | 307 kts | 224° |
| 2026-05-05 20:53 | 33.43773 | -96.26929 | 15583 ft | 299 kts | 232° |
| 2026-05-05 20:53 | 33.42433 | -96.28786 | 15144 ft | 298 kts | 232° |
| 2026-05-05 20:53 | 33.41082 | -96.30659 | 14692 ft | 297 kts | 232° |
| 2026-05-05 20:54 | 33.39732 | -96.32528 | 14259 ft | 296 kts | 232° |
| 2026-05-05 20:54 | 33.38388 | -96.34384 | 13822 ft | 295 kts | 232° |
| 2026-05-05 20:54 | 33.37042 | -96.36236 | 13368 ft | 294 kts | 232° |
| 2026-05-05 20:54 | 33.35704 | -96.38078 | 12976 ft | 291 kts | 232° |
| 2026-05-05 20:55 | 33.34397 | -96.39874 | 12838 ft | 280 kts | 232° |
| 2026-05-05 20:55 | 33.33179 | -96.41615 | 12402 ft | 268 kts | 238° |
| 2026-05-05 20:55 | 33.32302 | -96.43551 | 11831 ft | 261 kts | 250° |
| 2026-05-05 20:55 | 33.31733 | -96.45597 | 11529 ft | 261 kts | 252° |
| 2026-05-05 20:56 | 33.31160 | -96.47656 | 11232 ft | 260 kts | 251° |
| 2026-05-05 20:56 | 33.30584 | -96.49699 | 10996 ft | 256 kts | 251° |
| 2026-05-05 20:56 | 33.30018 | -96.51698 | 10708 ft | 254 kts | 251° |
| 2026-05-05 20:56 | 33.29454 | -96.53690 | 10386 ft | 253 kts | 251° |
| 2026-05-05 20:57 | 33.28902 | -96.55678 | 10091 ft | 251 kts | 255° |
| 2026-05-05 20:57 | 33.28639 | -96.57727 | 9829 ft | 250 kts | 265° |
| 2026-05-05 20:57 | 33.28550 | -96.59806 | 9517 ft | 250 kts | 265° |
| 2026-05-05 20:57 | 33.28459 | -96.61882 | 9203 ft | 249 kts | 265° |
| 2026-05-05 20:58 | 33.28368 | -96.63921 | 8910 ft | 248 kts | 265° |
| 2026-05-05 20:58 | 33.28270 | -96.65982 | 8613 ft | 248 kts | 265° |
| 2026-05-05 20:58 | 33.28171 | -96.68036 | 8316 ft | 247 kts | 265° |
| 2026-05-05 20:58 | 33.28075 | -96.70086 | 8019 ft | 247 kts | 265° |
| 2026-05-05 20:59 | 33.27981 | -96.72132 | 7727 ft | 246 kts | 265° |
| 2026-05-05 20:59 | 33.27887 | -96.74171 | 7439 ft | 245 kts | 265° |
| 2026-05-05 20:59 | 33.27796 | -96.76173 | 7224 ft | 237 kts | 265° |
| 2026-05-05 20:59 | 33.27707 | -96.78131 | 6885 ft | 236 kts | 265° |
| 2026-05-05 21:00 | 33.27617 | -96.80090 | 6587 ft | 236 kts | 265° |
| 2026-05-05 21:00 | 33.27523 | -96.82047 | 6302 ft | 235 kts | 265° |
| 2026-05-05 21:00 | 33.27430 | -96.83991 | 6049 ft | 233 kts | 266° |
| 2026-05-05 21:00 | 33.27350 | -96.85918 | 5998 ft | 234 kts | 266° |
| 2026-05-05 21:01 | 33.27280 | -96.87862 | 5996 ft | 235 kts | 266° |
| 2026-05-05 21:01 | 33.27211 | -96.89817 | 5994 ft | 235 kts | 266° |
| 2026-05-05 21:01 | 33.27142 | -96.91749 | 5996 ft | 236 kts | 266° |
| 2026-05-05 21:01 | 33.27070 | -96.93709 | 5997 ft | 236 kts | 266° |
| 2026-05-05 21:02 | 33.26901 | -96.95632 | 5996 ft | 226 kts | 253° |
| 2026-05-05 21:02 | 33.26181 | -96.97241 | 5999 ft | 220 kts | 230° |
| 2026-05-05 21:02 | 33.24980 | -96.98383 | 6002 ft | 223 kts | 217° |
| 2026-05-05 21:02 | 33.23681 | -96.99414 | 6005 ft | 224 kts | 218° |
| 2026-05-05 21:03 | 33.22387 | -97.00439 | 6007 ft | 224 kts | 217° |
| 2026-05-05 21:03 | 33.21084 | -97.01472 | 6012 ft | 226 kts | 218° |
| 2026-05-05 21:03 | 33.19662 | -97.02292 | 6006 ft | 231 kts | 199° |
| 2026-05-05 21:03 | 33.18066 | -97.02470 | 5852 ft | 230 kts | 185° |
| 2026-05-05 21:04 | 33.16473 | -97.02471 | 5620 ft | 226 kts | 185° |
| 2026-05-05 21:04 | 33.14940 | -97.02472 | 5396 ft | 222 kts | 185° |
| 2026-05-05 21:04 | 33.13392 | -97.02479 | 5076 ft | 223 kts | 185° |
| 2026-05-05 21:04 | 33.11839 | -97.02488 | 4792 ft | 222 kts | 185° |
| 2026-05-05 21:05 | 33.10291 | -97.02497 | 4497 ft | 222 kts | 184° |
| 2026-05-05 21:05 | 33.08768 | -97.02504 | 4136 ft | 218 kts | 184° |
| 2026-05-05 21:05 | 33.07252 | -97.02513 | 3656 ft | 217 kts | 184° |
| 2026-05-05 21:05 | 33.05743 | -97.02521 | 3203 ft | 215 kts | 184° |
| 2026-05-05 21:06 | 33.04305 | -97.02526 | 3060 ft | 196 kts | 185° |
| 2026-05-05 21:06 | 33.02998 | -97.02532 | 2750 ft | 182 kts | 183° |
| 2026-05-05 21:06 | 33.01806 | -97.02538 | 2507 ft | 166 kts | 185° |
| 2026-05-05 21:06 | 33.00657 | -97.02546 | 2312 ft | 162 kts | 184° |
| 2026-05-05 21:07 | 32.99555 | -97.02546 | 2133 ft | 156 kts | 186° |
| 2026-05-05 21:07 | 32.98460 | -97.02553 | 1789 ft | 159 kts | 186° |
| 2026-05-05 21:07 | 32.97364 | -97.02568 | 1494 ft | 157 kts | 188° |
| 2026-05-05 21:07 | 32.96262 | -97.02584 | 1345 ft | 160 kts | 187° |
| 2026-05-05 21:08 | 32.95154 | -97.02594 | 1247 ft | 156 kts | 182° |
| 2026-05-05 21:08 | 32.94084 | -97.02588 | 1088 ft | 151 kts | 180° |
| 2026-05-05 21:08 | 32.93048 | -97.02593 | 923 ft | 148 kts | 183° |
| 2026-05-05 21:08 | 32.92027 | -97.02592 | 715 ft | 147 kts | 184° |
| 2026-05-05 21:09 | 32.91001 | -97.02601 | 581 ft | 143 kts | 185° |
| 2026-05-05 21:09 | 32.90144 | -97.02611 | 573 ft | 100 kts | 181° |
| 2026-05-05 21:09 | 32.89591 | -97.02633 | 571 ft | 57 kts | 182° |
| 2026-05-05 21:09 | 32.89245 | -97.02641 | 572 ft | 38 kts | 191° |
| 2026-05-05 21:10 | 32.89051 | -97.02798 | 576 ft | 23 kts | 238° |
| 2026-05-05 21:10 | 32.89037 | -97.02911 | 574 ft | 9 kts | 271° |
| 2026-05-05 21:10 | 32.89037 | -97.02998 | 573 ft | 12 kts | 270° |
| 2026-05-05 21:10 | 32.89037 | -97.03114 | 571 ft | 16 kts | 271° |
| 2026-05-05 21:11 | 32.89038 | -97.03186 | 570 ft | 0 kts | 270° |
| 2026-05-05 21:11 | 32.89038 | -97.03193 | 571 ft | 3 kts | 270° |
| 2026-05-05 21:11 | 32.89038 | -97.03226 | 572 ft | 5 kts | 270° |
| 2026-05-05 21:12 | 32.89037 | -97.03268 | 577 ft | 4 kts | 269° |
| 2026-05-05 21:12 | 32.89037 | -97.03295 | 580 ft | 5 kts | 271° |
| 2026-05-05 21:12 | 32.89038 | -97.03366 | 584 ft | 13 kts | 270° |
| 2026-05-05 21:12 | 32.88986 | -97.03448 | 584 ft | 14 kts | 201° |
| 2026-05-05 21:13 | 32.88888 | -97.03488 | 584 ft | 16 kts | 205° |
| 2026-05-05 21:13 | 32.88875 | -97.03561 | 584 ft | 6 kts | 323° |
| 2026-05-05 21:13 | 32.88880 | -97.03566 | 584 ft | 0 kts | 320° |
| 2026-05-05 21:27 | 32.88865 | -97.03549 | 584 ft | 3 kts | 301° |
| 2026-05-05 21:27 | 32.88858 | -97.03525 | 584 ft | 3 kts | 261° |
| 2026-05-05 21:27 | 32.88867 | -97.03503 | 584 ft | 3 kts | 214° |
| 2026-05-05 21:28 | 32.88873 | -97.03498 | 584 ft | 9 kts | 185° |
| 2026-05-05 21:28 | 32.88868 | -97.03532 | 584 ft | 8 kts | 181° |
| 2026-05-05 21:28 | 32.88835 | -97.03520 | 584 ft | 10 kts | 206° |
| 2026-05-05 21:28 | 32.88797 | -97.03547 | 584 ft | 5 kts | 212° |
| 2026-05-05 21:29 | 32.88782 | -97.03559 | 584 ft | 4 kts | 212° |
| 2026-05-05 21:29 | 32.88758 | -97.03577 | 584 ft | 4 kts | 212° |
| 2026-05-05 21:29 | 32.88738 | -97.03592 | 584 ft | 3 kts | 212° |
| 2026-05-05 21:29 | 32.88726 | -97.03601 | 584 ft | 0 kts | 212° |